Time;durP1;ratioP1;P1;durP2;ratioP2;P2;SDS_P1;SDS_P2;PMS_P1;PMS_P2;Temp;Humidity;BMP_temperature;BMP_pressure;BME280_temperature;BME280_humidity;BME280_pressure;Samples;Min_cycle;Max_cycle;Signal;HPM_P1;HPM_P2
2022/08/19 00:02:02;;;;;;;;;;;27.90;79.70;;;;;;5015034;28;19929;-54
2022/08/19 00:04:32;;;;;;;;;;;27.90;79.70;;;;;;5010366;28;19937;-54
2022/08/19 00:06:59;;;;;;;;;;;27.90;79.70;;;;;;5017889;28;19929;-55
2022/08/19 00:09:27;;;;;;;;;;;27.90;79.70;;;;;;5023658;28;19929;-51
2022/08/19 00:11:55;;;;;;;;;;;27.90;79.70;;;;;;5016162;28;19930;-56
2022/08/19 00:14:23;;;;;;;;;;;27.90;79.70;;;;;;5013276;28;19929;-51
2022/08/19 00:16:53;;;;;;;;;;;27.90;79.70;;;;;;5018532;28;19930;-53
2022/08/19 00:19:21;;;;;;;;;;;27.90;79.70;;;;;;5018293;28;19936;-54
2022/08/19 00:21:48;;;;;;;;;;;27.90;79.70;;;;;;5012194;28;19940;-54
2022/08/19 00:24:15;;;;;;;;;;;27.90;79.70;;;;;;5017054;28;19937;-54
2022/08/19 00:26:43;;;;;;;;;;;27.90;79.70;;;;;;5017443;28;19932;-53
2022/08/19 00:29:12;;;;;;;;;;;27.90;79.70;;;;;;5035599;28;19929;-54
2022/08/19 00:31:39;;;;;;;;;;;27.90;79.70;;;;;;5022859;28;20682;-52
2022/08/19 00:34:06;;;;;;;;;;;27.90;79.70;;;;;;5016805;28;20440;-52
2022/08/19 00:36:33;;;;;;;;;;;27.90;79.70;;;;;;5012896;28;19933;-56
2022/08/19 00:39:00;;;;;;;;;;;27.90;79.70;;;;;;5015804;28;19929;-54
2022/08/19 00:41:27;;;;;;;;;;;27.90;79.70;;;;;;5011105;28;19933;-52
2022/08/19 00:44:16;;;;;;;;;;;27.90;79.70;;;;;;5016657;28;19936;-52
2022/08/19 00:46:44;;;;;;;;;;;27.90;79.80;;;;;;5031514;28;19925;-52
2022/08/19 00:49:21;;;;;;;;;;;27.90;79.70;;;;;;5012552;28;19941;-53
2022/08/19 00:51:54;;;;;;;;;;;27.90;79.80;;;;;;5014241;28;20460;-54
2022/08/19 00:54:21;;;;;;;;;;;27.90;79.80;;;;;;5015702;28;19956;-57
2022/08/19 00:56:57;;;;;;;;;;;27.90;79.80;;;;;;5019129;28;19936;-52
2022/08/19 00:59:25;;;;;;;;;;;27.90;79.80;;;;;;5015538;28;20000;-55
2022/08/19 01:02:12;;;;;;;;;;;27.90;79.80;;;;;;5015904;28;19948;-58
2022/08/19 01:04:39;;;;;;;;;;;27.90;79.80;;;;;;5009196;28;19933;-55
2022/08/19 01:07:07;;;;;;;;;;;27.80;79.70;;;;;;5010199;28;19929;-55
2022/08/19 01:09:34;;;;;;;;;;;27.90;79.80;;;;;;5028643;28;19929;-51
2022/08/19 01:12:01;;;;;;;;;;;27.90;79.80;;;;;;5020271;28;19937;-52
2022/08/19 01:14:29;;;;;;;;;;;27.80;79.70;;;;;;5017489;28;19971;-54
2022/08/19 01:16:57;;;;;;;;;;;27.80;79.70;;;;;;5014035;28;20285;-51
2022/08/19 01:19:27;;;;;;;;;;;27.80;79.80;;;;;;5011917;28;19936;-57
2022/08/19 01:22:05;;;;;;;;;;;27.80;79.80;;;;;;5011210;28;20405;-57
2022/08/19 01:24:42;;;;;;;;;;;27.80;79.80;;;;;;5011908;28;19929;-52
2022/08/19 01:27:16;;;;;;;;;;;27.80;79.70;;;;;;5019848;28;20434;-51
2022/08/19 01:29:44;;;;;;;;;;;27.80;79.70;;;;;;5012315;28;19932;-53
2022/08/19 01:32:14;;;;;;;;;;;27.80;79.80;;;;;;5010164;28;19952;-50
2022/08/19 01:35:01;;;;;;;;;;;27.80;79.80;;;;;;5010672;28;19941;-54
2022/08/19 01:37:30;;;;;;;;;;;27.80;79.80;;;;;;5012424;28;20454;-55
2022/08/19 01:39:57;;;;;;;;;;;27.80;79.80;;;;;;5011377;28;19925;-58
2022/08/19 01:42:24;;;;;;;;;;;27.80;79.80;;;;;;5009174;28;19929;-51
2022/08/19 01:44:56;;;;;;;;;;;27.80;79.80;;;;;;5034421;28;19929;-50
2022/08/19 01:47:24;;;;;;;;;;;27.80;79.80;;;;;;5013471;28;19929;-52
2022/08/19 01:49:51;;;;;;;;;;;27.80;79.80;;;;;;5018811;28;20312;-52
2022/08/19 01:52:18;;;;;;;;;;;27.80;79.80;;;;;;5009204;28;20308;-53
2022/08/19 01:54:45;;;;;;;;;;;27.80;79.80;;;;;;5010794;28;20377;-56
2022/08/19 01:57:13;;;;;;;;;;;27.80;79.80;;;;;;5008897;28;19925;-57
2022/08/19 01:59:41;;;;;;;;;;;27.80;79.80;;;;;;5009009;28;19960;-55
2022/08/19 02:02:09;;;;;;;;;;;27.80;79.80;;;;;;5009421;28;20548;-55
2022/08/19 02:04:37;;;;;;;;;;;27.80;79.80;;;;;;5010516;28;19926;-54
2022/08/19 02:07:05;;;;;;;;;;;27.80;79.80;;;;;;5009257;28;19929;-54
2022/08/19 02:09:32;;;;;;;;;;;27.80;79.80;;;;;;5008629;28;19929;-56
2022/08/19 02:12:00;;;;;;;;;;;27.80;79.80;;;;;;5008819;28;19940;-52
2022/08/19 02:14:27;;;;;;;;;;;27.80;79.90;;;;;;5012001;28;19933;-56
2022/08/19 02:16:54;;;;;;;;;;;27.70;79.80;;;;;;5008449;28;19929;-57
2022/08/19 02:19:21;;;;;;;;;;;27.70;79.80;;;;;;5009182;28;19925;-55
2022/08/19 02:21:48;;;;;;;;;;;27.70;79.80;;;;;;5008344;28;19925;-56
2022/08/19 02:24:15;;;;;;;;;;;27.70;79.80;;;;;;5008334;28;19936;-58
2022/08/19 02:26:42;;;;;;;;;;;27.70;79.80;;;;;;5011767;28;19925;-54
2022/08/19 02:29:09;;;;;;;;;;;27.80;79.90;;;;;;5015512;28;20572;-54
2022/08/19 02:31:36;;;;;;;;;;;27.70;79.80;;;;;;5008945;28;19925;-54
2022/08/19 02:34:04;;;;;;;;;;;27.70;79.80;;;;;;5007744;28;19929;-57
2022/08/19 02:36:31;;;;;;;;;;;27.70;79.90;;;;;;5009254;28;19936;-51
2022/08/19 02:38:58;;;;;;;;;;;27.70;79.80;;;;;;5008878;28;19925;-53
2022/08/19 02:41:27;;;;;;;;;;;27.70;79.90;;;;;;5008556;28;20396;-54
2022/08/19 02:43:56;;;;;;;;;;;27.70;79.90;;;;;;5019492;28;20278;-54
2022/08/19 02:46:44;;;;;;;;;;;27.70;79.90;;;;;;5019385;28;19925;-50
2022/08/19 02:49:12;;;;;;;;;;;27.70;79.90;;;;;;5037070;28;19929;-55
2022/08/19 02:51:40;;;;;;;;;;;27.70;79.90;;;;;;5015650;28;20245;-54
2022/08/19 02:54:08;;;;;;;;;;;27.70;79.90;;;;;;5014211;28;19932;-54
2022/08/19 02:56:36;;;;;;;;;;;27.70;79.90;;;;;;5015234;28;19936;-54
2022/08/19 02:59:08;;;;;;;;;;;27.70;79.90;;;;;;5008260;28;19934;-54
2022/08/19 03:01:39;;;;;;;;;;;27.70;79.90;;;;;;5008915;28;19936;-51
2022/08/19 03:04:07;;;;;;;;;;;27.70;79.90;;;;;;5012604;28;19932;-54
2022/08/19 03:06:38;;;;;;;;;;;27.70;79.90;;;;;;5014357;28;19929;-54
2022/08/19 03:09:05;;;;;;;;;;;27.70;79.90;;;;;;5012532;28;19964;-53
2022/08/19 03:11:32;;;;;;;;;;;27.70;79.90;;;;;;5008012;28;19929;-55
2022/08/19 03:14:00;;;;;;;;;;;27.70;79.90;;;;;;5010825;28;19935;-55
2022/08/19 03:16:28;;;;;;;;;;;27.70;79.90;;;;;;5012553;28;19926;-56
2022/08/19 03:19:00;;;;;;;;;;;27.70;79.90;;;;;;5010476;28;19929;-54
2022/08/19 03:21:29;;;;;;;;;;;27.70;79.90;;;;;;5007802;28;19933;-57
2022/08/19 03:23:57;;;;;;;;;;;27.70;79.90;;;;;;5018735;28;19929;-58
2022/08/19 03:26:25;;;;;;;;;;;27.70;79.90;;;;;;5012441;28;19941;-58
2022/08/19 03:28:52;;;;;;;;;;;27.70;79.90;;;;;;5013538;28;19930;-58
2022/08/19 03:31:25;;;;;;;;;;;27.70;79.90;;;;;;5007718;28;20337;-57
2022/08/19 03:34:13;;;;;;;;;;;27.70;79.90;;;;;;5011196;28;20005;-55
2022/08/19 03:36:40;;;;;;;;;;;27.60;79.80;;;;;;5011867;28;19941;-53
2022/08/19 03:39:09;;;;;;;;;;;27.60;79.90;;;;;;5014296;28;20388;-57
2022/08/19 03:41:37;;;;;;;;;;;27.60;79.90;;;;;;5011801;28;19925;-55
2022/08/19 03:44:17;;;;;;;;;;;27.60;79.90;;;;;;5023716;28;19936;-53
2022/08/19 03:46:46;;;;;;;;;;;27.60;79.90;;;;;;5020030;28;20384;-56
2022/08/19 03:49:14;;;;;;;;;;;27.60;79.90;;;;;;5012768;28;19932;-56
2022/08/19 03:51:42;;;;;;;;;;;27.60;79.90;;;;;;5012063;28;19940;-51
2022/08/19 03:54:12;;;;;;;;;;;27.60;79.90;;;;;;5016069;28;19964;-56
2022/08/19 03:56:40;;;;;;;;;;;27.70;80.00;;;;;;5026536;28;19936;-56
2022/08/19 03:59:16;;;;;;;;;;;27.60;79.90;;;;;;5016793;28;20404;-52
2022/08/19 04:01:44;;;;;;;;;;;27.60;80.00;;;;;;5011159;28;19930;-53
2022/08/19 04:04:11;;;;;;;;;;;27.60;80.00;;;;;;5018041;28;19933;-52
2022/08/19 04:06:38;;;;;;;;;;;27.60;79.90;;;;;;5010767;28;19951;-52
2022/08/19 04:09:08;;;;;;;;;;;27.60;80.00;;;;;;5013950;28;19936;-52
2022/08/19 04:11:41;;;;;;;;;;;27.60;80.00;;;;;;5030509;28;19936;-51
2022/08/19 04:14:12;;;;;;;;;;;27.60;80.00;;;;;;5015910;28;19929;-52
2022/08/19 04:16:39;;;;;;;;;;;27.60;80.00;;;;;;5020019;28;19929;-56
2022/08/19 04:19:06;;;;;;;;;;;27.60;80.00;;;;;;5023269;28;19925;-55
2022/08/19 04:21:34;;;;;;;;;;;27.60;80.00;;;;;;5013669;28;19930;-54
2022/08/19 04:24:01;;;;;;;;;;;27.60;80.00;;;;;;5010276;28;19930;-51
2022/08/19 04:26:32;;;;;;;;;;;27.60;80.00;;;;;;5014062;28;19936;-54
2022/08/19 04:29:04;;;;;;;;;;;27.60;80.00;;;;;;5011204;28;19933;-52
2022/08/19 04:31:38;;;;;;;;;;;27.50;79.90;;;;;;5011630;28;20380;-52
2022/08/19 04:34:06;;;;;;;;;;;27.60;80.00;;;;;;5010248;28;20328;-51
2022/08/19 04:36:34;;;;;;;;;;;27.50;80.00;;;;;;5016147;28;19933;-53
2022/08/19 04:39:09;;;;;;;;;;;27.60;80.00;;;;;;5021303;28;19933;-52
2022/08/19 04:44:22;;;;;;;;;;;27.50;79.90;;;;;;5017439;28;20384;-54
2022/08/19 04:46:49;;;;;;;;;;;27.60;80.00;;;;;;5016450;28;19937;-57
2022/08/19 04:49:21;;;;;;;;;;;27.50;80.00;;;;;;5015255;28;19936;-56
2022/08/19 04:51:49;;;;;;;;;;;27.60;80.00;;;;;;5013303;28;19926;-55
2022/08/19 04:54:19;;;;;;;;;;;27.50;80.00;;;;;;5014971;28;20512;-58
2022/08/19 04:57:06;;;;;;;;;;;27.50;80.00;;;;;;5020022;28;19933;-56
2022/08/19 04:59:33;;;;;;;;;;;27.50;80.00;;;;;;5015268;28;20400;-54
2022/08/19 05:02:00;;;;;;;;;;;27.50;80.00;;;;;;5023306;28;19929;-54
2022/08/19 05:04:31;;;;;;;;;;;27.50;80.00;;;;;;5013747;28;19941;-51
2022/08/19 05:07:00;;;;;;;;;;;27.50;80.00;;;;;;5014792;28;19933;-52
2022/08/19 05:09:28;;;;;;;;;;;27.50;80.00;;;;;;5011209;28;19956;-55
2022/08/19 05:12:16;;;;;;;;;;;27.50;80.00;;;;;;5010003;28;19937;-51
2022/08/19 05:14:45;;;;;;;;;;;27.50;80.00;;;;;;5016415;28;19932;-55
2022/08/19 05:17:13;;;;;;;;;;;27.50;80.00;;;;;;5017586;28;19926;-57
2022/08/19 05:22:46;;;;;;;;;;;27.50;80.00;;;;;;5015205;28;19944;-53
2022/08/19 05:25:18;;;;;;;;;;;27.50;80.00;;;;;;5011544;28;19936;-55
2022/08/19 05:27:45;;;;;;;;;;;27.50;80.00;;;;;;5010142;28;19929;-56
2022/08/19 05:30:12;;;;;;;;;;;27.50;80.00;;;;;;5015918;28;19929;-56
2022/08/19 05:32:39;;;;;;;;;;;27.50;80.00;;;;;;5009152;28;20305;-55
2022/08/19 05:35:07;;;;;;;;;;;27.50;80.00;;;;;;5009882;28;19941;-55
2022/08/19 05:37:34;;;;;;;;;;;27.50;80.00;;;;;;5019957;28;20301;-56
2022/08/19 05:40:02;;;;;;;;;;;27.50;80.00;;;;;;5010767;28;20419;-54
2022/08/19 05:42:30;;;;;;;;;;;27.50;80.00;;;;;;5012953;28;19940;-51
2022/08/19 05:44:57;;;;;;;;;;;27.50;80.00;;;;;;5016756;28;19937;-55
2022/08/19 05:47:24;;;;;;;;;;;27.50;80.00;;;;;;5010043;28;19930;-55
2022/08/19 05:49:51;;;;;;;;;;;27.50;80.00;;;;;;5030800;28;20431;-56
2022/08/19 05:52:19;;;;;;;;;;;27.50;80.00;;;;;;5016938;28;20320;-52
2022/08/19 05:54:54;;;;;;;;;;;27.50;80.00;;;;;;5011647;28;20616;-55
2022/08/19 05:57:22;;;;;;;;;;;27.50;80.00;;;;;;5017939;28;19929;-52
2022/08/19 05:59:51;;;;;;;;;;;27.50;80.00;;;;;;5028602;28;20343;-53
2022/08/19 06:02:30;;;;;;;;;;;27.50;80.10;;;;;;5013392;28;19953;-56
2022/08/19 06:04:58;;;;;;;;;;;27.50;80.10;;;;;;5022339;28;20396;-54
2022/08/19 06:07:25;;;;;;;;;;;27.50;80.10;;;;;;5010706;28;20329;-56
2022/08/19 06:09:52;;;;;;;;;;;27.50;80.00;;;;;;5008844;28;19929;-56
2022/08/19 06:12:28;;;;;;;;;;;27.50;80.10;;;;;;5041772;28;20227;-55
2022/08/19 06:14:55;;;;;;;;;;;27.50;80.10;;;;;;5020325;28;20301;-54
2022/08/19 06:17:30;;;;;;;;;;;27.50;80.10;;;;;;5009737;28;19940;-56
2022/08/19 06:19:58;;;;;;;;;;;27.50;80.10;;;;;;5019026;28;20340;-56
2022/08/19 06:22:27;;;;;;;;;;;27.50;80.10;;;;;;5013313;28;19929;-56
2022/08/19 06:24:55;;;;;;;;;;;27.50;80.10;;;;;;5013356;28;19936;-54
2022/08/19 06:27:22;;;;;;;;;;;27.50;80.10;;;;;;5017987;28;20611;-49
2022/08/19 06:29:49;;;;;;;;;;;27.40;80.10;;;;;;5015877;28;19930;-51
2022/08/19 06:32:17;;;;;;;;;;;27.50;80.10;;;;;;5021528;28;19925;-54
2022/08/19 06:34:45;;;;;;;;;;;27.50;80.20;;;;;;5014671;28;19929;-56
2022/08/19 06:37:12;;;;;;;;;;;27.50;80.20;;;;;;5009228;28;19932;-54
2022/08/19 06:39:41;;;;;;;;;;;27.50;80.20;;;;;;5008410;28;19925;-52
2022/08/19 06:42:11;;;;;;;;;;;27.50;80.20;;;;;;5008484;28;20308;-51
2022/08/19 06:44:40;;;;;;;;;;;27.50;80.20;;;;;;5015167;28;19929;-49
2022/08/19 06:47:11;;;;;;;;;;;27.50;80.20;;;;;;5013929;28;20108;-55
2022/08/19 06:49:41;;;;;;;;;;;27.50;80.20;;;;;;5011232;28;19929;-52
2022/08/19 06:52:11;;;;;;;;;;;27.50;80.20;;;;;;5007801;28;20408;-52
2022/08/19 06:54:41;;;;;;;;;;;27.50;80.20;;;;;;5021663;28;19929;-53
2022/08/19 06:57:23;;;;;;;;;;;27.50;80.20;;;;;;5010813;28;20397;-53
2022/08/19 06:59:50;;;;;;;;;;;27.50;80.10;;;;;;5022111;28;20367;-53
2022/08/19 07:02:18;;;;;;;;;;;27.50;80.10;;;;;;5016473;28;19929;-54
2022/08/19 07:04:45;;;;;;;;;;;27.50;80.10;;;;;;5016018;28;19937;-56
2022/08/19 07:07:14;;;;;;;;;;;27.50;80.10;;;;;;5013443;28;20385;-54
2022/08/19 07:09:46;;;;;;;;;;;27.50;80.10;;;;;;5022262;28;19940;-55
2022/08/19 07:12:27;;;;;;;;;;;27.50;80.10;;;;;;5012411;28;19930;-54
2022/08/19 07:14:57;;;;;;;;;;;27.50;80.10;;;;;;5023874;28;20436;-52
2022/08/19 07:17:24;;;;;;;;;;;27.60;80.20;;;;;;5011029;28;20308;-56
2022/08/19 07:19:53;;;;;;;;;;;27.60;80.20;;;;;;5022161;28;20403;-52
2022/08/19 07:22:22;;;;;;;;;;;27.60;80.20;;;;;;5012656;28;20409;-51
2022/08/19 07:24:53;;;;;;;;;;;27.60;80.20;;;;;;5007385;28;19929;-56
2022/08/19 07:27:21;;;;;;;;;;;27.60;80.20;;;;;;5012477;28;20382;-56
2022/08/19 07:29:54;;;;;;;;;;;27.60;80.20;;;;;;5008548;28;19948;-59
2022/08/19 07:32:26;;;;;;;;;;;27.60;80.20;;;;;;5007051;28;19937;-56
2022/08/19 07:34:54;;;;;;;;;;;27.60;80.30;;;;;;5008239;28;19933;-50
2022/08/19 07:37:26;;;;;;;;;;;27.60;80.30;;;;;;5007532;28;19926;-52
2022/08/19 07:39:59;;;;;;;;;;;27.60;80.30;;;;;;5015379;28;19932;-56
2022/08/19 07:42:29;;;;;;;;;;;27.60;80.30;;;;;;5011161;28;19929;-52
2022/08/19 07:44:56;;;;;;;;;;;27.60;80.30;;;;;;5017142;28;19929;-53
2022/08/19 07:47:23;;;;;;;;;;;27.60;80.30;;;;;;5006835;28;19934;-53
2022/08/19 07:50:11;;;;;;;;;;;27.70;80.40;;;;;;5013248;28;19930;-54
2022/08/19 07:52:39;;;;;;;;;;;27.60;80.30;;;;;;5006865;28;19929;-52
2022/08/19 07:55:08;;;;;;;;;;;27.70;80.40;;;;;;5011337;28;19925;-52
2022/08/19 07:57:55;;;;;;;;;;;27.70;80.50;;;;;;5012310;28;19930;-55
2022/08/19 08:00:22;;;;;;;;;;;27.70;80.40;;;;;;5016662;28;19932;-49
2022/08/19 08:02:51;;;;;;;;;;;27.70;80.50;;;;;;5006742;28;19952;-54
2022/08/19 08:10:54;;;;;;;;;;;27.70;80.40;;;;;;5019719;28;19929;-54
2022/08/19 08:13:24;;;;;;;;;;;27.70;80.50;;;;;;5006929;28;19944;-50
2022/08/19 08:15:52;;;;;;;;;;;27.70;80.50;;;;;;5009683;28;19932;-54
2022/08/19 08:18:25;;;;;;;;;;;27.70;80.50;;;;;;5008208;28;19925;-53
2022/08/19 08:20:55;;;;;;;;;;;27.70;80.50;;;;;;5010089;28;19960;-55
2022/08/19 08:23:22;;;;;;;;;;;27.70;80.50;;;;;;5011288;28;19932;-55
2022/08/19 08:25:49;;;;;;;;;;;27.70;80.50;;;;;;5015429;28;19973;-52
2022/08/19 08:28:17;;;;;;;;;;;27.70;80.50;;;;;;5010676;28;19926;-54
2022/08/19 08:30:47;;;;;;;;;;;27.70;80.50;;;;;;5012078;28;20390;-57
2022/08/19 08:33:19;;;;;;;;;;;27.70;80.50;;;;;;5010039;28;20424;-55
2022/08/19 08:36:02;;;;;;;;;;;27.70;80.50;;;;;;5016412;28;19941;-54
2022/08/19 08:38:31;;;;;;;;;;;27.70;80.50;;;;;;5032333;28;19941;-52
2022/08/19 08:41:22;;;;;;;;;;;27.70;80.50;;;;;;5011278;28;19968;-53
2022/08/19 08:43:52;;;;;;;;;;;27.70;80.50;;;;;;5016119;28;19929;-54
2022/08/19 08:46:38;;;;;;;;;;;27.70;80.50;;;;;;5011033;28;19936;-58
2022/08/19 08:49:24;;;;;;;;;;;27.70;80.50;;;;;;5010658;28;19952;-54
2022/08/19 08:52:00;;;;;;;;;;;27.70;80.60;;;;;;5018949;28;19926;-52
2022/08/19 08:54:31;;;;;;;;;;;27.70;80.50;;;;;;5012994;28;19933;-50
2022/08/19 08:57:02;;;;;;;;;;;27.70;80.50;;;;;;5013363;28;19937;-55
2022/08/19 08:59:34;;;;;;;;;;;27.70;80.60;;;;;;5009028;28;19929;-55
2022/08/19 09:02:01;;;;;;;;;;;27.70;80.50;;;;;;5009490;28;19936;-57
2022/08/19 09:04:28;;;;;;;;;;;27.70;80.60;;;;;;5009288;28;19934;-50
2022/08/19 09:06:55;;;;;;;;;;;27.70;80.60;;;;;;5009508;28;20314;-56
2022/08/19 09:09:43;;;;;;;;;;;27.70;80.50;;;;;;5010707;28;19949;-50
2022/08/19 09:12:19;;;;;;;;;;;27.70;80.50;;;;;;5017021;28;20645;-49
2022/08/19 09:14:56;;;;;;;;;;;27.70;80.50;;;;;;5013135;28;20163;-53
2022/08/19 09:17:30;;;;;;;;;;;27.80;80.60;;;;;;5009198;28;19933;-54
2022/08/19 09:20:07;;;;;;;;;;;27.80;80.60;;;;;;5030924;28;19952;-54
2022/08/19 09:22:39;;;;;;;;;;;27.80;80.60;;;;;;5040818;22;19936;-58
2022/08/19 09:25:07;;;;;;;;;;;27.80;80.60;;;;;;5044357;28;20279;-58
2022/08/19 09:27:37;;;;;;;;;;;27.80;80.60;;;;;;5056731;28;19944;-59
2022/08/19 09:30:12;;;;;;;;;;;27.80;80.60;;;;;;5051948;28;19952;-58
2022/08/19 09:32:42;;;;;;;;;;;27.80;80.60;;;;;;5039222;28;19929;-59
2022/08/19 09:35:09;;;;;;;;;;;27.80;80.60;;;;;;5040304;28;19932;-58
2022/08/19 09:37:38;;;;;;;;;;;27.80;80.60;;;;;;5044320;28;19928;-60
2022/08/19 09:40:07;;;;;;;;;;;27.80;80.60;;;;;;5037646;28;19925;-58
2022/08/19 09:42:35;;;;;;;;;;;27.80;80.60;;;;;;5044450;28;19940;-58
2022/08/19 09:45:03;;;;;;;;;;;27.80;80.70;;;;;;5048248;28;19925;-58
2022/08/19 09:47:33;;;;;;;;;;;27.80;80.70;;;;;;5041838;28;19929;-55
2022/08/19 09:50:00;;;;;;;;;;;27.80;80.70;;;;;;5039526;28;19929;-57
2022/08/19 09:52:27;;;;;;;;;;;27.80;80.70;;;;;;5036858;28;19925;-57
2022/08/19 09:54:59;;;;;;;;;;;27.80;80.60;;;;;;5036792;28;19937;-58
2022/08/19 09:57:26;;;;;;;;;;;27.80;80.60;;;;;;5037181;28;19941;-61
2022/08/19 09:59:53;;;;;;;;;;;27.80;80.60;;;;;;5047452;28;19940;-59
2022/08/19 10:02:20;;;;;;;;;;;27.80;80.70;;;;;;5035104;28;19929;-59
2022/08/19 10:07:35;;;;;;;;;;;27.80;80.70;;;;;;5045707;28;20124;-59
2022/08/19 10:10:05;;;;;;;;;;;27.80;80.70;;;;;;5042086;28;19936;-61
2022/08/19 10:12:37;;;;;;;;;;;27.90;80.70;;;;;;5040098;28;19933;-58
2022/08/19 10:15:05;;;;;;;;;;;27.90;80.70;;;;;;5049466;28;19929;-56
2022/08/19 10:17:34;;;;;;;;;;;27.90;80.70;;;;;;5042490;28;19926;-59
2022/08/19 10:20:04;;;;;;;;;;;27.80;80.70;;;;;;5047588;28;19936;-59
2022/08/19 10:22:31;;;;;;;;;;;27.80;80.70;;;;;;5046302;28;19928;-61
2022/08/19 10:24:58;;;;;;;;;;;27.90;80.80;;;;;;5048446;28;19951;-59
2022/08/19 10:27:25;;;;;;;;;;;27.90;80.70;;;;;;5047517;28;19933;-59
2022/08/19 10:29:52;;;;;;;;;;;27.90;80.70;;;;;;5049808;28;19929;-60
2022/08/19 10:32:21;;;;;;;;;;;27.90;80.80;;;;;;5043676;28;19935;-59
2022/08/19 10:35:00;;;;;;;;;;;27.90;80.80;;;;;;5042393;28;19929;-60
2022/08/19 10:37:30;;;;;;;;;;;27.90;80.80;;;;;;5041550;28;19933;-59
2022/08/19 10:39:58;;;;;;;;;;;27.90;80.70;;;;;;5054214;28;19929;-60
2022/08/19 10:42:25;;;;;;;;;;;27.80;80.70;;;;;;5042980;28;19940;-59
2022/08/19 10:44:53;;;;;;;;;;;27.90;80.70;;;;;;5045762;28;19952;-58
2022/08/19 10:47:21;;;;;;;;;;;27.90;80.80;;;;;;5050984;28;19929;-58
2022/08/19 10:52:40;;;;;;;;;;;27.90;80.70;;;;;;5035400;28;19925;-61
2022/08/19 10:58:22;;;;;;;;;;;27.90;80.70;;;;;;5035713;28;20487;-56
2022/08/19 11:00:54;;;;;;;;;;;27.90;80.70;;;;;;5036646;28;19936;-57
2022/08/19 11:03:21;;;;;;;;;;;27.90;80.70;;;;;;5041833;28;19925;-57
2022/08/19 11:06:02;;;;;;;;;;;27.90;80.70;;;;;;5044794;28;20082;-57
2022/08/19 11:08:30;;;;;;;;;;;27.90;80.70;;;;;;5037743;28;19936;-58
2022/08/19 11:11:00;;;;;;;;;;;27.90;80.70;;;;;;5037268;28;19926;-59
2022/08/19 11:13:28;;;;;;;;;;;27.90;80.70;;;;;;5036724;28;19933;-59
2022/08/19 11:16:00;;;;;;;;;;;27.90;80.70;;;;;;5038760;28;19940;-60
2022/08/19 11:18:33;;;;;;;;;;;27.90;80.70;;;;;;5050446;28;19947;-57
2022/08/19 11:21:27;;;;;;;;;;;27.90;80.70;;;;;;5040762;28;19929;-58
2022/08/19 11:23:56;;;;;;;;;;;27.90;80.70;;;;;;5034401;28;19929;-59
2022/08/19 11:26:23;;;;;;;;;;;27.90;80.70;;;;;;5040693;28;19936;-60
2022/08/19 11:28:54;;;;;;;;;;;27.90;80.70;;;;;;5035625;28;19929;-60
2022/08/19 11:31:22;;;;;;;;;;;27.90;80.70;;;;;;5035808;28;19944;-59
2022/08/19 11:33:59;;;;;;;;;;;27.90;80.60;;;;;;5041502;28;19929;-59
2022/08/19 11:36:26;;;;;;;;;;;27.90;81.20;;;;;;5036544;28;19936;-59
2022/08/19 11:38:54;;;;;;;;;;;27.90;80.70;;;;;;5044137;28;19926;-60
2022/08/19 11:41:25;;;;;;;;;;;27.90;80.60;;;;;;5034633;28;19925;-58
2022/08/19 11:43:54;;;;;;;;;;;27.90;80.70;;;;;;5036719;28;19928;-56
2022/08/19 11:46:23;;;;;;;;;;;27.90;80.60;;;;;;5049591;28;20308;-61
2022/08/19 11:48:51;;;;;;;;;;;27.90;80.60;;;;;;5044080;28;19959;-57
2022/08/19 11:51:19;;;;;;;;;;;27.90;80.60;;;;;;5035940;28;20465;-61
2022/08/19 11:53:47;;;;;;;;;;;27.90;80.60;;;;;;5042540;28;19928;-60
2022/08/19 11:56:14;;;;;;;;;;;27.90;80.50;;;;;;5045479;28;19932;-59
2022/08/19 11:58:42;;;;;;;;;;;27.90;80.50;;;;;;5041636;28;19925;-59
2022/08/19 12:01:10;;;;;;;;;;;27.90;80.50;;;;;;5041058;28;20341;-61
2022/08/19 12:03:38;;;;;;;;;;;27.90;80.60;;;;;;5040102;28;19929;-61
2022/08/19 12:06:06;;;;;;;;;;;27.90;80.60;;;;;;5040661;28;19936;-59
2022/08/19 12:08:34;;;;;;;;;;;27.90;80.60;;;;;;5041245;28;19929;-56
2022/08/19 12:11:01;;;;;;;;;;;27.90;80.60;;;;;;5038269;28;20039;-59
2022/08/19 12:13:30;;;;;;;;;;;27.90;80.60;;;;;;5052270;28;19933;-59
2022/08/19 12:15:58;;;;;;;;;;;27.90;80.50;;;;;;5057359;28;19924;-57
2022/08/19 12:18:25;;;;;;;;;;;27.90;80.60;;;;;;5043737;28;19944;-58
2022/08/19 12:20:56;;;;;;;;;;;27.90;81.00;;;;;;5046208;28;19932;-60
2022/08/19 12:23:23;;;;;;;;;;;27.90;80.70;;;;;;5039967;28;19929;-58
2022/08/19 12:25:51;;;;;;;;;;;27.90;80.70;;;;;;5041550;28;19929;-59
2022/08/19 12:28:19;;;;;;;;;;;27.90;80.70;;;;;;5046003;28;20005;-56
2022/08/19 12:30:47;;;;;;;;;;;27.90;80.80;;;;;;5038197;28;19940;-54
2022/08/19 12:33:14;;;;;;;;;;;27.90;80.70;;;;;;5036566;28;19929;-55
2022/08/19 12:35:42;;;;;;;;;;;28.00;80.70;;;;;;5042011;28;20329;-59
2022/08/19 12:38:12;;;;;;;;;;;28.00;80.70;;;;;;5039137;28;19936;-61
2022/08/19 12:40:40;;;;;;;;;;;28.00;80.70;;;;;;5044161;28;19932;-57
2022/08/19 12:43:08;;;;;;;;;;;28.00;80.70;;;;;;5037010;28;19930;-60
2022/08/19 12:45:35;;;;;;;;;;;28.00;80.70;;;;;;5039036;28;19968;-59
2022/08/19 12:48:04;;;;;;;;;;;28.00;80.60;;;;;;5038235;28;19936;-57
2022/08/19 12:50:51;;;;;;;;;;;28.00;80.60;;;;;;5040072;28;19925;-60
2022/08/19 12:53:18;;;;;;;;;;;28.10;80.60;;;;;;5041759;28;19948;-61
2022/08/19 12:55:46;;;;;;;;;;;28.10;80.60;;;;;;5039866;28;19940;-59
2022/08/19 12:58:13;;;;;;;;;;;28.10;80.50;;;;;;5048711;28;19924;-58
2022/08/19 13:00:40;;;;;;;;;;;28.10;80.50;;;;;;5039998;28;19928;-60
2022/08/19 13:03:07;;;;;;;;;;;28.10;80.50;;;;;;5045972;28;19940;-60
2022/08/19 13:05:35;;;;;;;;;;;28.10;80.40;;;;;;5044084;28;19929;-54
2022/08/19 13:08:02;;;;;;;;;;;28.20;80.50;;;;;;5046989;28;19935;-60
2022/08/19 13:10:34;;;;;;;;;;;28.10;80.40;;;;;;5067015;28;19929;-58
2022/08/19 13:13:03;;;;;;;;;;;28.10;80.50;;;;;;5050992;28;19936;-57
2022/08/19 13:15:33;;;;;;;;;;;28.10;80.50;;;;;;5046310;28;19952;-58
2022/08/19 13:18:00;;;;;;;;;;;28.10;80.50;;;;;;5045616;28;19929;-60
2022/08/19 13:20:27;;;;;;;;;;;28.10;80.50;;;;;;5045567;28;19935;-58
2022/08/19 13:22:54;;;;;;;;;;;28.10;80.50;;;;;;5055809;28;19939;-57
2022/08/19 13:25:21;;;;;;;;;;;28.10;80.50;;;;;;5041595;28;19936;-58
2022/08/19 13:27:49;;;;;;;;;;;28.20;80.50;;;;;;5050052;28;19948;-60
2022/08/19 13:33:14;;;;;;;;;;;28.30;80.40;;;;;;5037027;28;19935;-58
2022/08/19 13:35:42;;;;;;;;;;;28.30;80.30;;;;;;5047268;28;20292;-60
2022/08/19 13:38:10;;;;;;;;;;;28.30;80.20;;;;;;5037379;28;20404;-60
2022/08/19 13:40:38;;;;;;;;;;;28.30;80.20;;;;;;5035633;28;19932;-59
2022/08/19 13:43:08;;;;;;;;;;;28.30;80.30;;;;;;5041848;28;19928;-55
2022/08/19 13:45:50;;;;;;;;;;;28.30;80.30;;;;;;5053306;28;19932;-58
2022/08/19 13:48:18;;;;;;;;;;;28.30;80.30;;;;;;5049703;28;19933;-60
2022/08/19 13:50:46;;;;;;;;;;;28.30;80.60;;;;;;5037628;28;19936;-58
2022/08/19 13:53:14;;;;;;;;;;;28.30;80.30;;;;;;5043015;28;19929;-57
2022/08/19 13:55:42;;;;;;;;;;;28.30;80.40;;;;;;5052327;28;19951;-60
2022/08/19 13:58:10;;;;;;;;;;;28.30;80.40;;;;;;5040327;28;19929;-60
2022/08/19 14:00:42;;;;;;;;;;;28.30;80.30;;;;;;5043007;28;20543;-58
2022/08/19 14:03:10;;;;;;;;;;;28.40;80.70;;;;;;5036920;28;19929;-59
2022/08/19 14:05:37;;;;;;;;;;;28.40;80.00;;;;;;5047940;28;20255;-59
2022/08/19 14:08:04;;;;;;;;;;;28.50;80.00;;;;;;5041446;28;20320;-59
2022/08/19 14:10:33;;;;;;;;;;;28.50;80.00;;;;;;5038236;28;19936;-60
2022/08/19 14:13:01;;;;;;;;;;;28.50;80.00;;;;;;5044708;28;19929;-60
2022/08/19 14:15:28;;;;;;;;;;;28.50;80.00;;;;;;5037531;28;19933;-58
2022/08/19 14:17:56;;;;;;;;;;;28.50;80.10;;;;;;5036151;28;19936;-59
2022/08/19 14:20:23;;;;;;;;;;;28.40;80.00;;;;;;5038599;28;19936;-61
2022/08/19 14:22:52;;;;;;;;;;;28.50;79.90;;;;;;5045398;28;20522;-60
2022/08/19 14:25:21;;;;;;;;;;;28.60;79.80;;;;;;5061313;28;20480;-58
2022/08/19 14:27:48;;;;;;;;;;;28.60;79.80;;;;;;5037746;28;19940;-59
2022/08/19 14:30:17;;;;;;;;;;;28.60;79.80;;;;;;5036589;28;20423;-61
2022/08/19 14:32:44;;;;;;;;;;;28.60;79.60;;;;;;5037199;28;19937;-58
2022/08/19 14:35:13;;;;;;;;;;;28.70;79.60;;;;;;5038344;28;19929;-58
2022/08/19 14:37:41;;;;;;;;;;;28.70;79.60;;;;;;5040462;28;19928;-58
2022/08/19 14:40:13;;;;;;;;;;;28.80;79.50;;;;;;5045795;28;19929;-59
2022/08/19 14:42:41;;;;;;;;;;;28.80;79.40;;;;;;5044263;28;19929;-60
2022/08/19 14:45:09;;;;;;;;;;;28.90;79.30;;;;;;5040725;28;20369;-60
2022/08/19 14:47:37;;;;;;;;;;;29.00;79.20;;;;;;5041023;28;19928;-57
2022/08/19 14:50:07;;;;;;;;;;;29.00;79.10;;;;;;5047089;28;19929;-59
2022/08/19 14:52:36;;;;;;;;;;;29.10;79.00;;;;;;5041475;28;19932;-60
2022/08/19 14:55:04;;;;;;;;;;;29.10;78.90;;;;;;5045635;28;20340;-59